Time;durP1;ratioP1;P1;durP2;ratioP2;P2;SDS_P1;SDS_P2;PMS_P1;PMS_P2;Temp;Humidity;BMP_temperature;BMP_pressure;BME280_temperature;BME280_humidity;BME280_pressure;Samples;Min_cycle;Max_cycle;Signal;HPM_P1;HPM_P2
2023/06/03 00:01:19;;;;;;;2.50;1.30;;;12.00;99.90;;;;;;6277236;22;20004;-85
2023/06/03 00:03:46;;;;;;;3.17;1.23;;;12.00;99.90;;;;;;6250240;22;20012;-84
2023/06/03 00:06:12;;;;;;;3.30;1.35;;;12.00;99.90;;;;;;6327721;22;20011;-83
2023/06/03 00:08:39;;;;;;;3.80;1.33;;;11.90;99.90;;;;;;6275190;22;20011;-84
2023/06/03 00:11:05;;;;;;;3.55;1.40;;;11.90;99.90;;;;;;6249193;22;20318;-83
2023/06/03 00:13:31;;;;;;;3.83;1.60;;;11.90;99.90;;;;;;6275202;22;20011;-83
2023/06/03 00:15:56;;;;;;;3.13;1.60;;;11.80;99.90;;;;;;6250097;22;20018;-82
2023/06/03 00:18:23;;;;;;;3.40;1.40;;;11.80;99.90;;;;;;6300677;22;20022;-83
2023/06/03 00:20:49;;;;;;;3.30;1.40;;;11.80;99.90;;;;;;6249981;22;20018;-84
2023/06/03 00:23:15;;;;;;;3.80;1.35;;;11.70;99.90;;;;;;6275624;22;20342;-83
2023/06/03 00:25:41;;;;;;;5.35;1.45;;;11.70;99.90;;;;;;6301243;22;20342;-84
2023/06/03 00:28:06;;;;;;;6.13;1.30;;;11.70;99.90;;;;;;6276883;22;20091;-84
2023/06/03 00:30:32;;;;;;;2.67;1.17;;;11.70;99.90;;;;;;6301209;22;20011;-83
2023/06/03 00:32:57;;;;;;;3.15;1.20;;;11.70;99.90;;;;;;6275153;22;20012;-83
2023/06/03 00:35:23;;;;;;;3.40;1.50;;;11.70;99.90;;;;;;6275001;22;20016;-83
2023/06/03 00:37:49;;;;;;;4.57;1.40;;;11.70;99.90;;;;;;6325968;22;20099;-82
2023/06/03 00:40:14;;;;;;;3.58;1.25;;;11.60;99.90;;;;;;6326587;22;20008;-83
2023/06/03 00:42:40;;;;;;;3.58;1.15;;;11.60;99.90;;;;;;6301055;22;20396;-84
2023/06/03 00:45:06;;;;;;;5.38;1.70;;;11.50;99.90;;;;;;6275309;22;20011;-83
2023/06/03 00:47:32;;;;;;;3.70;1.25;;;11.50;99.90;;;;;;6300892;22;20095;-85
2023/06/03 00:49:58;;;;;;;2.22;1.10;;;11.40;99.90;;;;;;6276692;22;20043;-84
2023/06/03 00:52:24;;;;;;;3.30;1.25;;;11.40;99.90;;;;;;6249870;22;20098;-83
2023/06/03 00:54:51;;;;;;;2.90;1.40;;;11.30;99.90;;;;;;6273861;22;20008;-83
2023/06/03 00:57:22;;;;;;;3.30;1.30;;;11.30;99.90;;;;;;6276611;22;20038;-84
2023/06/03 00:59:48;;;;;;;2.23;1.10;;;11.30;99.90;;;;;;6248051;22;20375;-83
2023/06/03 01:02:14;;;;;;;3.75;1.20;;;11.30;99.90;;;;;;6249484;22;20326;-83
2023/06/03 01:04:42;;;;;;;3.90;1.30;;;11.20;99.90;;;;;;6326462;22;20372;-81
2023/06/03 01:07:20;;;;;;;4.50;1.25;;;11.20;99.90;;;;;;6274713;22;20437;-81
2023/06/03 01:10:23;;;;;;;3.17;1.40;;;11.10;99.90;;;;;;6276689;22;20027;-82
2023/06/03 01:13:04;;;;;;;2.20;1.10;;;11.10;99.90;;;;;;6277043;22;20007;-82
2023/06/03 01:15:34;;;;;;;3.58;1.17;;;11.00;99.90;;;;;;6275247;22;20018;-83
2023/06/03 01:18:05;;;;;;;4.45;1.40;;;10.90;99.90;;;;;;6274316;22;20015;-84
2023/06/03 01:20:32;;;;;;;3.88;1.23;;;10.90;99.90;;;;;;6275044;22;20061;-83
2023/06/03 01:23:23;;;;;;;2.63;1.15;;;10.80;99.90;;;;;;6249608;22;20011;-83
2023/06/03 01:25:52;;;;;;;5.25;1.40;;;10.70;99.90;;;;;;6273102;22;20018;-83
2023/06/03 01:28:21;;;;;;;3.63;1.15;;;10.60;99.90;;;;;;6248251;22;20020;-82
2023/06/03 01:30:47;;;;;;;3.85;1.60;;;10.60;99.90;;;;;;6248667;22;20030;-84
2023/06/03 01:33:14;;;;;;;2.60;0.98;;;10.50;99.90;;;;;;6249349;22;20486;-84
2023/06/03 01:35:40;;;;;;;5.10;1.30;;;10.50;99.90;;;;;;6275410;22;20149;-83
2023/06/03 01:38:07;;;;;;;2.83;1.23;;;10.50;99.90;;;;;;6248983;22;20012;-83
2023/06/03 01:40:34;;;;;;;3.80;1.23;;;10.40;99.90;;;;;;6248727;22;20087;-82
2023/06/03 01:43:00;;;;;;;2.78;1.40;;;10.40;99.90;;;;;;6274642;22;20008;-83
2023/06/03 01:45:25;;;;;;;3.42;1.30;;;10.40;99.90;;;;;;6250405;22;20014;-82
2023/06/03 01:47:51;;;;;;;4.20;1.10;;;10.30;99.90;;;;;;6251192;22;20061;-83
2023/06/03 01:50:17;;;;;;;3.22;1.17;;;10.30;99.90;;;;;;6278857;22;20065;-83
2023/06/03 01:52:44;;;;;;;4.93;1.50;;;10.30;99.90;;;;;;6302504;22;20016;-82
2023/06/03 01:55:10;;;;;;;3.10;1.30;;;10.30;99.90;;;;;;6278891;22;20011;-83
2023/06/03 01:57:36;;;;;;;5.38;1.40;;;10.20;99.90;;;;;;6278471;22;20096;-83
2023/06/03 02:00:06;;;;;;;3.17;1.27;;;10.20;99.90;;;;;;6275974;22;20043;-82
2023/06/03 02:02:32;;;;;;;4.50;1.30;;;10.20;99.90;;;;;;6277004;22;20010;-83
2023/06/03 02:04:57;;;;;;;4.45;1.50;;;10.20;99.90;;;;;;6277005;22;20004;-83
2023/06/03 02:07:25;;;;;;;3.88;1.25;;;10.10;99.90;;;;;;6302125;22;20069;-83
2023/06/03 02:09:52;;;;;;;3.60;1.48;;;10.10;99.90;;;;;;6276198;22;20026;-83
2023/06/03 02:12:19;;;;;;;3.38;1.23;;;10.00;99.90;;;;;;6278784;22;20011;-83
2023/06/03 02:14:44;;;;;;;4.00;1.38;;;9.90;99.90;;;;;;6277948;22;20022;-84
2023/06/03 02:17:11;;;;;;;4.75;1.40;;;9.90;99.90;;;;;;6276723;22;20016;-83
2023/06/03 02:19:37;;;;;;;3.67;1.17;;;9.90;99.90;;;;;;6327396;22;20450;-83
2023/06/03 02:22:03;;;;;;;3.15;1.50;;;9.90;99.90;;;;;;6250432;22;20008;-84
2023/06/03 02:24:31;;;;;;;5.85;1.20;;;9.80;99.90;;;;;;6328159;22;20076;-83
2023/06/03 02:27:00;;;;;;;4.00;1.27;;;9.80;99.90;;;;;;6302251;22;20326;-84
2023/06/03 02:29:26;;;;;;;3.75;1.30;;;9.80;99.90;;;;;;6250629;22;20091;-84
2023/06/03 02:31:53;;;;;;;3.65;1.15;;;9.80;99.90;;;;;;6276715;22;20096;-84
2023/06/03 02:34:19;;;;;;;3.50;1.45;;;9.80;99.90;;;;;;6277105;22;20090;-84
2023/06/03 02:36:46;;;;;;;3.70;1.15;;;9.80;99.90;;;;;;6278092;22;20058;-83
2023/06/03 02:39:12;;;;;;;4.60;1.30;;;9.80;99.90;;;;;;6328337;22;20073;-83
2023/06/03 02:41:38;;;;;;;5.65;1.45;;;9.80;99.90;;;;;;6277775;22;20018;-82
2023/06/03 02:44:04;;;;;;;2.88;1.30;;;9.70;99.90;;;;;;6276612;22;20018;-84
2023/06/03 02:46:30;;;;;;;4.00;1.20;;;9.70;99.90;;;;;;6277543;22;20338;-83
2023/06/03 02:48:56;;;;;;;2.95;1.23;;;9.70;99.90;;;;;;6276558;22;20012;-84
2023/06/03 02:51:22;;;;;;;2.88;1.20;;;9.60;99.90;;;;;;6276404;22;20011;-85
2023/06/03 02:53:48;;;;;;;3.55;1.45;;;9.60;99.90;;;;;;6276485;22;20038;-83
2023/06/03 02:56:13;;;;;;;3.73;1.20;;;9.60;99.90;;;;;;6275074;22;20030;-84
2023/06/03 02:58:40;;;;;;;3.28;1.35;;;9.60;99.90;;;;;;6327704;22;20216;-84
2023/06/03 03:01:05;;;;;;;4.43;1.55;;;9.70;99.90;;;;;;6250464;22;20011;-83
2023/06/03 03:03:36;;;;;;;5.32;1.55;;;9.70;99.90;;;;;;6328127;22;20008;-84
2023/06/03 03:06:03;;;;;;;6.72;1.50;;;9.60;99.90;;;;;;6276090;22;20016;-83
2023/06/03 03:08:30;;;;;;;4.03;1.40;;;9.60;99.90;;;;;;6250818;22;20008;-84
2023/06/03 03:10:55;;;;;;;6.72;1.40;;;9.50;99.90;;;;;;6276087;22;20007;-84
2023/06/03 03:13:21;;;;;;;5.10;1.45;;;9.50;99.90;;;;;;6328015;22;20037;-84
2023/06/03 03:15:47;;;;;;;6.50;1.60;;;9.40;99.90;;;;;;6327925;22;20012;-83
2023/06/03 03:18:13;;;;;;;5.95;1.65;;;9.40;99.90;;;;;;6276190;22;20530;-83
2023/06/03 03:20:39;;;;;;;4.22;1.40;;;9.40;99.90;;;;;;6278014;22;20097;-83
2023/06/03 03:23:06;;;;;;;6.65;1.30;;;9.30;99.90;;;;;;6250412;22;20012;-82
2023/06/03 03:25:32;;;;;;;5.03;1.50;;;9.30;99.90;;;;;;6274570;22;20376;-84
2023/06/03 03:27:58;;;;;;;5.20;1.30;;;9.30;99.90;;;;;;6250641;22;20016;-84
2023/06/03 03:30:24;;;;;;;5.30;1.50;;;9.30;99.90;;;;;;6328189;22;20015;-84
2023/06/03 03:32:50;;;;;;;7.07;1.58;;;9.30;99.90;;;;;;6276476;22;20326;-84
2023/06/03 03:35:20;;;;;;;4.93;1.52;;;9.30;99.90;;;;;;6275660;22;20012;-83
2023/06/03 03:37:48;;;;;;;4.47;1.42;;;9.30;99.90;;;;;;6250077;22;20022;-84
2023/06/03 03:40:22;;;;;;;6.95;1.30;;;9.20;99.90;;;;;;6275672;22;20008;-84
2023/06/03 03:42:54;;;;;;;4.10;1.60;;;9.20;99.90;;;;;;6275753;22;20014;-83
2023/06/03 03:45:25;;;;;;;4.10;1.60;;;9.30;99.90;;;;;;6274095;22;20008;-84
2023/06/03 03:47:52;;;;;;;4.97;1.33;;;9.30;99.90;;;;;;6275025;22;20022;-84
2023/06/03 03:50:40;;;;;;;3.15;1.33;;;9.30;99.90;;;;;;6249116;22;20349;-84
2023/06/03 03:53:11;;;;;;;4.03;1.40;;;9.20;99.90;;;;;;6250430;22;20011;-84
2023/06/03 03:55:45;;;;;;;5.05;1.50;;;9.20;99.90;;;;;;6249654;22;20012;-83
2023/06/03 03:58:29;;;;;;;2.25;1.30;;;9.20;99.90;;;;;;6250286;22;20441;-84
2023/06/03 04:00:59;;;;;;;4.40;1.83;;;9.20;99.90;;;;;;6249477;22;20087;-84
2023/06/03 04:03:25;;;;;;;5.43;1.60;;;9.20;99.90;;;;;;6276336;22;20019;-85
2023/06/03 04:05:52;;;;;;;6.32;1.80;;;9.30;99.90;;;;;;6249301;22;20066;-84
2023/06/03 04:08:40;;;;;;;5.85;1.65;;;9.30;99.90;;;;;;6276022;22;20011;-84
2023/06/03 04:11:08;;;;;;;4.22;1.63;;;9.30;99.90;;;;;;6275370;22;20011;-84
2023/06/03 04:13:40;;;;;;;5.85;1.80;;;9.40;99.90;;;;;;6274718;22;20050;-84
2023/06/03 04:16:11;;;;;;;4.50;1.23;;;9.40;99.90;;;;;;6249670;22;20016;-84
2023/06/03 04:18:41;;;;;;;4.35;1.67;;;9.50;99.90;;;;;;6275478;22;20019;-84
2023/06/03 04:21:14;;;;;;;5.45;1.80;;;9.50;99.90;;;;;;6275411;22;20077;-84
2023/06/03 04:23:40;;;;;;;4.50;1.60;;;9.50;99.90;;;;;;6277470;22;20011;-84
2023/06/03 04:26:06;;;;;;;4.05;1.40;;;9.60;99.90;;;;;;6274380;22;20023;-83
2023/06/03 04:28:32;;;;;;;3.78;1.50;;;9.60;99.90;;;;;;6250112;22;20015;-83
2023/06/03 04:30:58;;;;;;;5.03;1.80;;;9.70;99.90;;;;;;6301088;22;20018;-84
2023/06/03 04:33:23;;;;;;;3.75;1.70;;;9.70;99.90;;;;;;6326627;22;20011;-83
2023/06/03 04:35:49;;;;;;;6.50;2.05;;;9.80;99.90;;;;;;6299657;22;20016;-84
2023/06/03 04:38:14;;;;;;;5.30;1.40;;;9.90;99.90;;;;;;6276918;22;20015;-84
2023/06/03 04:40:40;;;;;;;4.32;1.55;;;9.90;99.90;;;;;;6249277;22;20019;-83
2023/06/03 04:43:07;;;;;;;5.22;1.60;;;9.90;99.90;;;;;;6326656;22;20463;-84
2023/06/03 04:45:34;;;;;;;5.65;1.70;;;10.00;99.90;;;;;;6274421;22;20337;-83
2023/06/03 04:48:01;;;;;;;5.22;1.40;;;10.00;99.90;;;;;;6275372;22;20018;-83
2023/06/03 04:50:34;;;;;;;4.90;1.80;;;10.10;99.90;;;;;;6275000;22;20051;-84
2023/06/03 04:53:00;;;;;;;6.22;1.50;;;10.20;99.90;;;;;;6249832;22;20495;-84
2023/06/03 04:55:26;;;;;;;6.28;1.80;;;10.20;99.90;;;;;;6274732;22;20019;-83
2023/06/03 04:57:54;;;;;;;4.28;1.48;;;10.20;99.90;;;;;;6275328;22;20016;-83
2023/06/03 05:00:21;;;;;;;3.63;1.42;;;10.30;99.90;;;;;;6300014;22;20083;-83
2023/06/03 05:02:54;;;;;;;3.97;1.40;;;10.40;99.90;;;;;;6300878;22;20008;-83
2023/06/03 05:05:24;;;;;;;4.45;1.55;;;10.50;99.90;;;;;;6274512;22;20463;-83
2023/06/03 05:07:50;;;;;;;4.05;1.70;;;10.50;99.90;;;;;;6275081;22;20492;-84
2023/06/03 05:10:16;;;;;;;6.30;1.95;;;10.60;99.90;;;;;;6274094;22;20011;-83
2023/06/03 05:12:42;;;;;;;5.13;1.60;;;10.60;99.90;;;;;;6247775;22;20023;-84
2023/06/03 05:15:08;;;;;;;4.32;1.60;;;10.70;99.90;;;;;;6248303;22;20012;-83
2023/06/03 05:17:34;;;;;;;3.85;1.60;;;10.70;99.90;;;;;;6248659;22;20012;-83
2023/06/03 05:19:59;;;;;;;5.68;1.65;;;10.70;99.90;;;;;;6275962;22;20022;-84
2023/06/03 05:22:25;;;;;;;4.75;1.65;;;10.90;99.90;;;;;;6325966;22;20007;-84
2023/06/03 05:24:50;;;;;;;5.40;1.70;;;10.90;99.90;;;;;;6274248;22;20061;-83
2023/06/03 05:27:16;;;;;;;7.40;1.85;;;11.00;99.90;;;;;;6325285;22;20020;-84
2023/06/03 05:29:42;;;;;;;4.47;1.73;;;11.00;99.90;;;;;;6326351;22;20078;-84
2023/06/03 05:32:07;;;;;;;6.60;2.00;;;11.10;99.90;;;;;;6274979;22;20065;-84
2023/06/03 05:34:33;;;;;;;4.97;1.90;;;11.20;99.90;;;;;;6275943;22;20011;-83
2023/06/03 05:36:58;;;;;;;4.20;1.80;;;11.30;99.90;;;;;;6274529;22;20544;-83
2023/06/03 05:39:24;;;;;;;7.30;1.85;;;11.50;99.90;;;;;;6248734;22;20003;-84
2023/06/03 05:41:49;;;;;;;6.55;1.60;;;11.50;99.90;;;;;;6326366;22;20047;-84
2023/06/03 05:44:15;;;;;;;5.47;1.90;;;11.60;99.90;;;;;;6248583;22;20012;-84
2023/06/03 05:46:41;;;;;;;5.25;1.85;;;11.70;99.90;;;;;;6326280;22;20051;-83
2023/06/03 05:49:06;;;;;;;5.45;1.60;;;11.90;99.90;;;;;;6275811;22;20015;-83
2023/06/03 05:51:32;;;;;;;3.58;1.60;;;12.00;99.90;;;;;;6299725;22;20023;-84
2023/06/03 05:53:57;;;;;;;5.95;1.70;;;12.10;99.90;;;;;;6298308;22;20020;-83
2023/06/03 05:56:23;;;;;;;3.55;1.30;;;12.20;99.90;;;;;;6248882;22;20022;-84
2023/06/03 05:58:48;;;;;;;5.65;1.73;;;12.40;99.90;;;;;;6248007;22;20018;-84
2023/06/03 06:01:14;;;;;;;3.60;1.70;;;12.50;99.90;;;;;;6300029;22;20454;-84
2023/06/03 06:03:41;;;;;;;5.45;1.60;;;12.60;99.90;;;;;;6300076;22;20007;-84
2023/06/03 06:06:07;;;;;;;6.35;1.75;;;12.50;99.90;;;;;;6249094;22;20074;-84
2023/06/03 06:08:32;;;;;;;4.47;1.67;;;12.60;99.90;;;;;;6275592;22;20023;-83
2023/06/03 06:10:58;;;;;;;5.43;1.83;;;12.70;99.90;;;;;;6247967;22;20011;-85
2023/06/03 06:13:23;;;;;;;4.82;1.50;;;12.70;99.90;;;;;;6272397;22;20016;-84
2023/06/03 06:16:03;;;;;;;3.42;1.50;;;12.70;99.90;;;;;;6297576;22;20012;-84
2023/06/03 06:18:29;;;;;;;4.18;1.52;;;12.80;99.90;;;;;;6246275;22;20319;-83
2023/06/03 06:20:56;;;;;;;7.03;1.77;;;12.80;99.90;;;;;;6247923;22;20043;-85
2023/06/03 06:23:22;;;;;;;5.10;1.85;;;12.90;99.90;;;;;;6274164;22;20008;-84
2023/06/03 06:25:52;;;;;;;5.75;1.50;;;13.10;99.90;;;;;;6325602;22;20004;-86
2023/06/03 06:28:19;;;;;;;4.35;1.60;;;13.20;99.90;;;;;;6272963;22;20050;-86
2023/06/03 06:30:44;;;;;;;5.13;1.67;;;13.30;99.90;;;;;;6246097;22;20011;-85
2023/06/03 06:33:16;;;;;;;3.95;1.50;;;13.30;99.90;;;;;;6301342;22;20400;-85
2023/06/03 06:35:42;;;;;;;4.25;1.67;;;13.30;99.90;;;;;;6276542;22;20015;-84
2023/06/03 06:38:08;;;;;;;5.63;1.55;;;13.30;99.90;;;;;;6250252;22;20282;-82
2023/06/03 06:40:35;;;;;;;3.75;1.58;;;13.30;99.90;;;;;;6277215;22;20012;-81
2023/06/03 06:43:01;;;;;;;4.35;1.70;;;13.30;99.90;;;;;;6276494;22;20043;-81
2023/06/03 06:45:30;;;;;;;6.40;2.10;;;13.40;99.90;;;;;;6277617;22;20540;-84
2023/06/03 06:48:12;;;;;;;3.75;1.55;;;13.60;99.90;;;;;;6276398;22;20011;-81
2023/06/03 06:50:49;;;;;;;4.60;1.60;;;13.80;99.90;;;;;;6276507;22;20011;-81
2023/06/03 06:53:16;;;;;;;4.65;1.50;;;14.00;99.90;;;;;;6249388;22;20405;-81
2023/06/03 06:56:08;;;;;;;4.15;1.40;;;14.10;99.90;;;;;;6250387;22;20012;-82
2023/06/03 06:58:38;;;;;;;4.43;1.50;;;14.40;99.90;;;;;;6237552;22;20022;-82
2023/06/03 07:01:05;;;;;;;5.28;1.80;;;14.50;99.90;;;;;;6250110;22;20033;-81
2023/06/03 07:03:32;;;;;;;5.22;1.60;;;14.60;99.90;;;;;;6275364;22;20046;-81
2023/06/03 07:05:59;;;;;;;3.35;1.38;;;14.60;99.90;;;;;;6274765;22;20015;-81
2023/06/03 07:08:25;;;;;;;4.85;1.50;;;14.50;99.90;;;;;;6276300;22;20047;-82
2023/06/03 07:10:55;;;;;;;4.70;1.50;;;14.60;99.90;;;;;;6328060;22;20364;-83
2023/06/03 07:13:20;;;;;;;3.28;1.30;;;14.70;99.90;;;;;;6278090;22;20007;-85
2023/06/03 07:15:46;;;;;;;3.90;1.63;;;14.80;99.90;;;;;;6249943;22;20081;-82
2023/06/03 07:18:12;;;;;;;4.00;1.30;;;14.80;99.90;;;;;;6327823;22;20015;-82
2023/06/03 07:20:43;;;;;;;4.22;1.30;;;15.00;99.90;;;;;;6249898;22;20077;-82
2023/06/03 07:23:11;;;;;;;3.38;1.25;;;15.10;99.90;;;;;;6276104;22;20033;-82
2023/06/03 07:25:44;;;;;;;4.25;1.35;;;15.20;99.90;;;;;;6301807;22;20016;-82
2023/06/03 07:28:12;;;;;;;4.38;1.20;;;15.30;99.90;;;;;;6276189;22;20012;-83
2023/06/03 07:30:39;;;;;;;2.83;1.10;;;15.50;99.90;;;;;;6276250;22;20449;-83
2023/06/03 07:33:08;;;;;;;3.45;1.10;;;15.60;99.90;;;;;;6276401;22;20322;-84
2023/06/03 07:35:35;;;;;;;4.60;1.25;;;15.80;99.90;;;;;;6247974;22;20091;-83
2023/06/03 07:38:02;;;;;;;2.55;1.20;;;15.80;99.90;;;;;;6249922;22;20018;-84
2023/06/03 07:40:46;;;;;;;3.78;1.20;;;16.00;99.90;;;;;;6276222;22;20012;-80
2023/06/03 07:43:12;;;;;;;4.63;1.17;;;16.20;99.80;;;;;;6249874;22;20004;-85
2023/06/03 07:45:38;;;;;;;3.50;1.10;;;16.40;99.90;;;;;;6275611;22;20149;-86
2023/06/03 07:48:05;;;;;;;3.28;1.00;;;16.60;98.70;;;;;;6277527;22;20469;-86
2023/06/03 07:50:32;;;;;;;2.72;0.98;;;16.80;99.90;;;;;;6275573;22;20033;-87
2023/06/03 07:53:00;;;;;;;13.15;2.38;;;16.80;97.80;;;;;;6247352;22;20095;-85
2023/06/03 07:55:26;;;;;;;2.47;0.95;;;17.00;98.70;;;;;;6249869;22;20485;-87
2023/06/03 07:57:52;;;;;;;9.55;1.55;;;17.00;97.60;;;;;;6275841;22;20012;-86
2023/06/03 08:00:17;;;;;;;3.40;0.90;;;17.20;97.70;;;;;;6327228;22;20008;-86
2023/06/03 08:02:44;;;;;;;3.90;1.20;;;17.30;96.20;;;;;;6250126;22;20413;-84
2023/06/03 08:05:10;;;;;;;4.38;1.25;;;17.40;93.70;;;;;;6276455;22;20441;-88
2023/06/03 08:07:36;;;;;;;3.88;1.10;;;17.40;94.00;;;;;;6326842;22;20024;-84
2023/06/03 08:10:03;;;;;;;3.88;1.20;;;17.50;89.50;;;;;;6248786;22;20070;-86
2023/06/03 08:12:33;;;;;;;5.95;1.40;;;17.60;93.20;;;;;;6276191;22;20018;-86
2023/06/03 08:15:03;;;;;;;5.05;1.13;;;17.70;93.60;;;;;;6275968;22;20008;-86
2023/06/03 08:17:40;;;;;;;2.35;1.00;;;17.80;90.00;;;;;;6303465;22;20011;-86
2023/06/03 08:20:09;;;;;;;3.15;0.90;;;17.80;88.50;;;;;;6278901;22;20008;-86
2023/06/03 08:22:44;;;;;;;2.13;0.82;;;17.90;89.70;;;;;;6275698;22;20011;-87
2023/06/03 08:25:11;;;;;;;3.13;0.95;;;17.90;84.80;;;;;;6250408;22;20008;-87
2023/06/03 08:27:37;;;;;;;2.92;0.90;;;17.90;85.90;;;;;;6274857;22;20015;-86
2023/06/03 08:30:07;;;;;;;3.58;1.00;;;17.90;76.40;;;;;;6249720;22;20008;-86
2023/06/03 08:32:34;;;;;;;3.83;0.85;;;17.90;84.20;;;;;;6250027;22;20012;-86
2023/06/03 08:35:00;;;;;;;3.45;0.90;;;17.70;84.50;;;;;;6247654;22;20011;-86
2023/06/03 08:37:26;;;;;;;2.30;0.82;;;17.60;88.00;;;;;;6274870;22;20016;-84
2023/06/03 08:39:53;;;;;;;2.47;1.08;;;17.40;81.10;;;;;;6299226;22;20016;-93
2023/06/03 08:42:23;;;;;;;4.30;1.10;;;17.30;82.10;;;;;;6273815;22;20030;-88
2023/06/03 08:45:02;;;;;;;3.17;0.90;;;17.10;84.40;;;;;;6273534;22;20007;-87
2023/06/03 08:48:05;;;;;;;7.10;1.30;;;17.20;87.30;;;;;;6250108;22;20015;-87
2023/06/03 08:50:33;;;;;;;5.05;1.13;;;17.00;84.10;;;;;;6249826;22;20015;-87
2023/06/03 08:53:03;;;;;;;8.00;1.67;;;16.90;85.70;;;;;;6249813;22;20018;-89
2023/06/03 08:55:30;;;;;;;7.05;1.20;;;16.80;79.50;;;;;;6275489;22;20012;-89
2023/06/03 08:58:08;;;;;;;4.45;1.10;;;16.90;84.40;;;;;;6274993;22;20039;-86
2023/06/03 09:00:34;;;;;;;9.15;1.40;;;17.00;89.50;;;;;;6249315;22;20007;-86
2023/06/03 09:03:01;;;;;;;5.18;1.40;;;17.30;90.60;;;;;;6299736;22;20341;-88
2023/06/03 09:05:27;;;;;;;2.05;0.95;;;17.40;78.50;;;;;;6275621;22;20019;-90
2023/06/03 09:07:54;;;;;;;7.35;1.08;;;17.60;87.30;;;;;;6326786;22;20008;-90
2023/06/03 09:10:25;;;;;;;3.08;1.05;;;17.60;83.10;;;;;;6277427;22;20008;-92
2023/06/03 09:12:54;;;;;;;4.05;1.00;;;17.60;80.60;;;;;;6277827;22;20004;-90
2023/06/03 09:15:22;;;;;;;5.65;1.00;;;17.60;81.50;;;;;;6275402;22;20007;-89
2023/06/03 09:17:47;;;;;;;4.85;1.20;;;17.60;79.80;;;;;;6275256;22;20087;-85
2023/06/03 09:20:13;;;;;;;3.95;0.90;;;17.70;81.30;;;;;;6299653;22;20047;-91
2023/06/03 09:22:42;;;;;;;4.78;1.23;;;17.80;79.00;;;;;;6275351;22;20012;-86
2023/06/03 09:25:08;;;;;;;2.45;0.90;;;18.00;84.90;;;;;;6274668;22;20019;-85
2023/06/03 09:27:35;;;;;;;4.05;1.13;;;18.10;88.50;;;;;;6249127;22;20018;-87
2023/06/03 09:30:03;;;;;;;3.85;1.10;;;18.20;71.80;;;;;;6274720;22;20477;-83
2023/06/03 09:32:33;;;;;;;3.65;1.15;;;18.30;73.10;;;;;;6274822;22;20491;-85
2023/06/03 09:35:00;;;;;;;2.85;0.98;;;18.30;72.20;;;;;;6275000;22;20074;-85
2023/06/03 09:37:26;;;;;;;3.20;1.00;;;18.50;79.60;;;;;;6272258;22;20323;-84
2023/06/03 09:39:52;;;;;;;3.15;1.05;;;18.60;74.60;;;;;;6276444;22;20434;-86
2023/06/03 09:42:17;;;;;;;5.43;0.90;;;18.70;82.90;;;;;;6275399;22;20042;-86
2023/06/03 09:44:55;;;;;;;4.55;0.98;;;18.80;82.20;;;;;;6276263;22;20030;-83
2023/06/03 09:47:21;;;;;;;2.58;0.80;;;18.80;67.20;;;;;;6249395;22;20039;-86
2023/06/03 09:50:09;;;;;;;1.60;0.90;;;18.90;77.50;;;;;;6249402;22;20069;-86
2023/06/03 09:52:36;;;;;;;5.43;1.10;;;19.10;74.00;;;;;;6247931;22;20012;-87
2023/06/03 09:55:10;;;;;;;3.92;1.00;;;19.20;76.00;;;;;;6274595;22;20019;-85
2023/06/03 09:57:39;;;;;;;5.38;1.15;;;19.30;70.90;;;;;;6300148;22;20521;-83
2023/06/03 10:00:07;;;;;;;3.88;0.90;;;19.20;68.60;;;;;;6248557;22;20003;-85
2023/06/03 10:02:44;;;;;;;2.25;0.95;;;19.30;67.90;;;;;;6249368;22;20018;-86
2023/06/03 10:05:29;;;;;;;6.20;1.10;;;19.30;65.10;;;;;;6248062;22;20077;-85
2023/06/03 10:07:56;;;;;;;3.83;1.10;;;19.40;65.60;;;;;;6274578;22;20441;-84
2023/06/03 10:10:23;;;;;;;3.33;1.10;;;19.30;64.60;;;;;;6276124;22;20086;-89
2023/06/03 10:12:50;;;;;;;6.43;1.30;;;19.40;73.10;;;;;;6250484;22;20404;-88
2023/06/03 10:15:35;;;;;;;2.80;1.00;;;19.50;70.20;;;;;;6276917;22;20012;-90
2023/06/03 10:18:01;;;;;;;3.85;1.13;;;19.60;71.50;;;;;;6250926;22;20054;-86
2023/06/03 10:20:36;;;;;;;5.25;1.00;;;19.70;72.20;;;;;;6251323;22;20019;-83
2023/06/03 10:23:03;;;;;;;4.47;1.00;;;19.70;72.80;;;;;;6251339;22;20018;-83
2023/06/03 10:25:38;;;;;;;2.75;1.13;;;19.70;68.10;;;;;;6326657;22;20043;-84
2023/06/03 10:28:04;;;;;;;1.92;1.02;;;19.60;66.80;;;;;;6278638;22;20065;-84
2023/06/03 10:30:30;;;;;;;4.00;1.08;;;19.60;70.00;;;;;;6276666;22;20008;-84
2023/06/03 10:33:03;;;;;;;3.70;1.10;;;19.60;69.80;;;;;;6276367;22;20011;-81
2023/06/03 10:35:33;;;;;;;2.95;0.90;;;19.60;69.70;;;;;;6278510;22;20073;-80
2023/06/03 10:38:00;;;;;;;5.80;1.50;;;19.60;67.30;;;;;;6250730;22;20012;-95
2023/06/03 10:40:27;;;;;;;3.60;1.30;;;19.40;64.20;;;;;;6277578;22;20007;-90
2023/06/03 10:42:54;;;;;;;4.65;0.95;;;19.60;72.00;;;;;;6250144;22;20015;-85
2023/06/03 10:45:21;;;;;;;7.25;1.30;;;19.80;70.80;;;;;;6250991;22;20007;-90
2023/06/03 10:47:48;;;;;;;3.00;1.05;;;19.80;65.80;;;;;;6277322;22;20091;-88
2023/06/03 10:50:42;;;;;;;2.20;0.90;;;19.90;70.60;;;;;;6277354;22;20067;-88
2023/06/03 10:53:36;;;;;;;7.05;1.35;;;20.00;70.70;;;;;;6328501;22;20349;-88
2023/06/03 10:56:21;;;;;;;2.72;1.10;;;20.00;63.20;;;;;;6276895;22;20012;-92
2023/06/03 10:58:57;;;;;;;2.72;1.02;;;20.00;65.40;;;;;;6275515;22;20016;-87
2023/06/03 11:01:43;;;;;;;1.58;1.00;;;20.00;67.50;;;;;;6304842;22;20058;-87
2023/06/03 11:04:08;;;;;;;6.75;1.20;;;20.10;71.80;;;;;;6328211;22;20008;-86
2023/06/03 11:06:34;;;;;;;2.90;0.90;;;20.20;71.20;;;;;;6275966;22;20465;-88
2023/06/03 11:09:09;;;;;;;3.30;1.02;;;20.30;69.10;;;;;;6276086;22;20349;-87
2023/06/03 11:11:52;;;;;;;3.95;1.10;;;20.30;68.00;;;;;;6275897;22;20008;-88
2023/06/03 11:14:24;;;;;;;3.95;1.13;;;20.40;63.90;;;;;;6276496;22;20015;-85
2023/06/03 11:16:59;;;;;;;3.47;1.13;;;20.30;66.70;;;;;;6248502;22;20444;-87
2023/06/03 11:19:36;;;;;;;5.28;1.23;;;20.30;66.70;;;;;;6250505;22;20040;-86
2023/06/03 11:22:07;;;;;;;1.80;1.00;;;20.30;65.60;;;;;;6250844;22;20015;-86
2023/06/03 11:24:41;;;;;;;2.65;1.08;;;20.10;62.60;;;;;;6276196;22;20015;-84
2023/06/03 11:27:10;;;;;;;2.55;1.10;;;20.30;65.40;;;;;;6278051;22;20026;-86
2023/06/03 11:29:56;;;;;;;4.00;1.02;;;20.30;65.80;;;;;;6246534;22;20454;-86
2023/06/03 11:32:30;;;;;;;5.13;1.10;;;20.30;64.80;;;;;;6250176;22;20016;-85
2023/06/03 11:34:59;;;;;;;3.03;1.17;;;20.30;67.30;;;;;;6276004;22;20472;-84
2023/06/03 11:37:43;;;;;;;3.70;1.30;;;20.40;64.60;;;;;;6275626;22;20019;-85
2023/06/03 11:40:17;;;;;;;4.03;1.05;;;20.30;65.80;;;;;;6275481;22;20519;-85
2023/06/03 11:42:51;;;;;;;3.70;1.13;;;20.30;66.90;;;;;;6275236;22;20011;-85
2023/06/03 11:45:20;;;;;;;3.85;0.90;;;20.40;64.10;;;;;;6276606;22;20016;-80
2023/06/03 11:48:04;;;;;;;2.83;1.20;;;20.30;65.60;;;;;;6246517;22;20020;-81
2023/06/03 11:50:32;;;;;;;2.95;1.00;;;20.30;64.30;;;;;;6250278;22;20050;-81
2023/06/03 11:52:58;;;;;;;5.32;0.90;;;20.30;66.30;;;;;;6250104;22;20034;-83
2023/06/03 11:55:30;;;;;;;2.85;1.05;;;20.30;66.00;;;;;;6276153;22;20019;-86
2023/06/03 11:58:11;;;;;;;2.42;0.98;;;20.40;63.20;;;;;;6249584;22;20055;-83
2023/06/03 12:00:37;;;;;;;3.28;1.10;;;20.30;60.10;;;;;;6250098;22;20004;-84
2023/06/03 12:03:04;;;;;;;4.30;1.10;;;20.20;62.60;;;;;;6249660;22;20012;-81
2023/06/03 12:05:29;;;;;;;4.65;1.00;;;20.40;62.90;;;;;;6273995;22;20026;-85
2023/06/03 12:07:59;;;;;;;3.35;1.00;;;20.40;61.80;;;;;;6276200;22;20016;-84
2023/06/03 12:10:26;;;;;;;4.38;1.17;;;20.40;62.10;;;;;;6275875;22;20057;-81
2023/06/03 12:12:55;;;;;;;3.30;1.10;;;20.40;58.40;;;;;;6275688;22;20057;-85
2023/06/03 12:15:22;;;;;;;2.40;0.82;;;20.30;62.40;;;;;;6275711;22;20039;-82
2023/06/03 12:17:48;;;;;;;5.05;1.20;;;20.30;64.00;;;;;;6277422;22;20043;-82
2023/06/03 12:20:28;;;;;;;5.18;1.52;;;20.40;61.90;;;;;;6275744;22;20453;-82
2023/06/03 12:23:01;;;;;;;1.95;0.85;;;20.50;64.90;;;;;;6274521;22;20457;-81
2023/06/03 12:25:29;;;;;;;2.70;1.10;;;20.40;62.30;;;;;;6249928;22;20453;-79
2023/06/03 12:27:56;;;;;;;2.53;1.05;;;20.50;60.90;;;;;;6275718;22;20011;-82
2023/06/03 12:30:33;;;;;;;3.00;1.30;;;20.50;62.40;;;;;;6250040;22;20019;-82
2023/06/03 12:32:59;;;;;;;3.85;1.10;;;20.50;61.30;;;;;;6276120;22;20344;-82
2023/06/03 12:35:28;;;;;;;4.57;1.20;;;20.60;63.30;;;;;;6277320;22;20341;-83
2023/06/03 12:38:04;;;;;;;5.30;1.30;;;20.60;57.80;;;;;;6326031;22;20022;-83
2023/06/03 12:40:29;;;;;;;2.28;1.20;;;20.40;62.20;;;;;;6249183;22;20011;-81
2023/06/03 12:42:56;;;;;;;3.13;0.90;;;20.30;58.60;;;;;;6301201;22;20054;-82
2023/06/03 12:45:26;;;;;;;2.33;1.20;;;20.20;62.80;;;;;;6275471;22;20019;-86
2023/06/03 12:47:53;;;;;;;3.97;1.48;;;20.30;59.30;;;;;;6250421;22;20015;-82
2023/06/03 12:50:20;;;;;;;3.83;1.27;;;20.20;56.20;;;;;;6275762;22;20011;-84
2023/06/03 12:52:47;;;;;;;2.10;0.90;;;20.30;56.20;;;;;;6275879;22;20376;-85
2023/06/03 12:55:14;;;;;;;5.57;1.50;;;20.30;59.90;;;;;;6273875;22;20090;-83
2023/06/03 12:57:41;;;;;;;5.93;1.23;;;20.30;60.10;;;;;;6249932;22;20441;-86